Time;durP1;ratioP1;P1;durP2;ratioP2;P2;SDS_P1;SDS_P2;PMS_P1;PMS_P2;Temp;Humidity;BMP_temperature;BMP_pressure;BME280_temperature;BME280_humidity;BME280_pressure;Samples;Min_cycle;Max_cycle;Signal;HPM_P1;HPM_P2
2022/04/27 00:01:49;;;;;;;14.20;10.65;;;;;;;6.25;74.70;102315.19;5009435;28;20057;-73
2022/04/27 00:04:14;;;;;;;12.95;10.90;;;;;;;6.23;74.60;102310.97;5008649;28;20036;-73
2022/04/27 00:06:39;;;;;;;13.27;10.57;;;;;;;6.16;74.51;102294.94;5009897;28;20053;-72
2022/04/27 00:09:06;;;;;;;14.02;11.15;;;;;;;6.13;74.88;102301.03;5010045;28;20113;-73
2022/04/27 00:11:31;;;;;;;14.93;10.85;;;;;;;6.17;74.47;102314.63;5009766;28;20061;-74
2022/04/27 00:13:58;;;;;;;14.10;10.45;;;;;;;6.13;75.02;102303.59;5009632;28;20074;-73
2022/04/27 00:16:24;;;;;;;13.30;10.75;;;;;;;6.12;74.94;102311.41;5009334;28;20033;-73
2022/04/27 00:18:49;;;;;;;15.15;11.10;;;;;;;6.13;75.20;102300.19;5008600;28;20037;-74
2022/04/27 00:21:14;;;;;;;14.30;11.10;;;;;;;6.11;75.26;102308.00;5007465;28;20457;-73
2022/04/27 00:23:40;;;;;;;13.77;11.52;;;;;;;6.10;75.11;102292.59;5009263;28;20481;-73
2022/04/27 00:26:05;;;;;;;15.70;10.32;;;;;;;6.07;74.96;102305.59;5009252;28;20073;-73
2022/04/27 00:28:31;;;;;;;15.15;10.98;;;;;;;6.05;75.90;102307.41;5007690;28;20389;-74
2022/04/27 00:30:56;;;;;;;13.35;11.50;;;;;;;6.00;75.55;102299.00;5008946;28;20033;-70
2022/04/27 00:33:21;;;;;;;15.20;11.68;;;;;;;6.01;75.97;102306.66;5008423;28;20030;-71
2022/04/27 00:35:47;;;;;;;14.40;11.00;;;;;;;5.97;76.40;102304.28;5009290;28;20700;-73
2022/04/27 00:38:12;;;;;;;14.52;11.48;;;;;;;5.84;75.71;102294.41;5008591;28;20428;-73
2022/04/27 00:40:37;;;;;;;13.70;11.77;;;;;;;5.84;76.10;102309.84;5009245;28;20394;-73
2022/04/27 00:43:04;;;;;;;13.05;11.27;;;;;;;5.81;76.08;102309.97;5007340;28;20033;-73
2022/04/27 00:45:29;;;;;;;14.70;11.80;;;;;;;5.80;75.91;102304.91;5008621;28;20140;-73
2022/04/27 00:47:54;;;;;;;15.57;11.38;;;;;;;5.80;76.86;102310.06;5006896;28;20152;-73
2022/04/27 00:50:20;;;;;;;15.63;11.90;;;;;;;5.77;76.01;102303.25;4990554;28;20121;-71
2022/04/27 00:52:46;;;;;;;16.33;11.55;;;;;;;5.76;76.29;102314.47;5008468;28;20037;-74
2022/04/27 00:55:11;;;;;;;15.40;11.43;;;;;;;5.72;76.63;102315.47;5006340;28;20436;-73
2022/04/27 00:57:39;;;;;;;15.10;11.88;;;;;;;5.65;76.53;102314.03;5009344;28;20037;-73
2022/04/27 01:00:07;;;;;;;13.82;11.18;;;;;;;5.67;76.57;102311.38;5008165;28;20064;-73
2022/04/27 01:02:33;;;;;;;14.02;11.18;;;;;;;5.66;77.30;102317.44;5008128;28;20030;-74
2022/04/27 01:04:59;;;;;;;17.70;11.55;;;;;;;5.70;76.74;102312.13;5008234;28;20071;-71
2022/04/27 01:07:25;;;;;;;15.93;12.07;;;;;;;5.64;77.25;102307.19;5008318;28;20089;-73
2022/04/27 01:09:50;;;;;;;17.08;11.27;;;;;;;5.69;77.52;102310.44;5008191;28;20108;-73
2022/04/27 01:12:16;;;;;;;13.88;11.25;;;;;;;5.61;77.32;102304.72;5008209;28;20033;-73
2022/04/27 01:14:43;;;;;;;14.13;11.68;;;;;;;5.71;77.03;102321.50;5007146;28;20034;-73
2022/04/27 01:17:08;;;;;;;17.20;11.90;;;;;;;5.67;77.43;102311.38;5007710;28;20043;-72
2022/04/27 01:19:33;;;;;;;16.23;11.85;;;;;;;5.69;77.35;102320.75;5008114;28;20018;-72
2022/04/27 01:21:59;;;;;;;12.95;10.88;;;;;;;5.65;77.06;102308.88;5008163;28;20485;-73
2022/04/27 01:24:25;;;;;;;13.82;11.15;;;;;;;5.62;76.92;102316.72;5007591;28;20522;-74
2022/04/27 01:26:51;;;;;;;15.23;11.43;;;;;;;5.65;76.86;102329.47;5008854;28;20034;-71
2022/04/27 01:29:18;;;;;;;15.88;11.70;;;;;;;5.60;77.37;102328.78;5008087;28;20052;-73
2022/04/27 01:31:44;;;;;;;17.23;12.55;;;;;;;5.55;77.42;102330.69;5007444;28;20046;-72
2022/04/27 01:34:10;;;;;;;14.57;12.50;;;;;;;5.52;77.49;102328.25;5004431;28;20026;-73
2022/04/27 01:36:36;;;;;;;16.02;12.02;;;;;;;5.50;77.08;102330.84;5007969;28;20445;-69
2022/04/27 01:39:02;;;;;;;16.13;12.27;;;;;;;5.51;77.97;102335.13;5007936;28;20030;-72
2022/04/27 01:41:27;;;;;;;14.13;11.73;;;;;;;5.50;77.55;102338.56;5008337;28;20037;-73
2022/04/27 01:43:52;;;;;;;14.65;12.07;;;;;;;5.48;78.34;102331.81;5007658;28;20026;-72
2022/04/27 01:46:17;;;;;;;17.13;12.23;;;;;;;5.42;77.48;102326.88;5005748;28;20041;-73
2022/04/27 01:48:43;;;;;;;14.32;11.85;;;;;;;5.46;77.95;102339.59;5023050;28;20509;-71
2022/04/27 01:51:09;;;;;;;14.25;11.85;;;;;;;5.46;77.64;102338.75;5007401;28;20030;-73
2022/04/27 01:56:19;;;;;;;16.15;12.30;;;;;;;5.36;78.22;102332.25;5006922;28;20540;-73
2022/04/27 01:58:45;;;;;;;15.68;11.95;;;;;;;5.32;78.21;102342.63;5007462;28;20057;-73
2022/04/27 02:01:11;;;;;;;16.90;11.95;;;;;;;5.37;78.59;102351.94;5006647;28;20076;-73
2022/04/27 02:03:37;;;;;;;15.88;12.48;;;;;;;5.36;78.45;102352.84;5007874;28;20061;-72
2022/04/27 02:06:03;;;;;;;14.23;11.82;;;;;;;5.31;78.01;102346.13;5005139;28;20033;-73
2022/04/27 02:08:28;;;;;;;17.58;13.10;;;;;;;5.31;77.70;102356.41;5005455;28;20030;-73
2022/04/27 02:10:54;;;;;;;15.07;11.77;;;;;;;5.29;78.65;102355.63;5007010;28;20021;-72
2022/04/27 02:13:20;;;;;;;14.50;11.80;;;;;;;5.24;78.30;102349.81;5007344;28;20064;-73
2022/04/27 02:15:45;;;;;;;16.25;12.00;;;;;;;5.20;78.55;102352.53;5007119;28;20037;-71
2022/04/27 02:18:11;;;;;;;16.00;11.77;;;;;;;5.23;79.36;102352.44;5006601;28;20509;-72
2022/04/27 02:20:36;;;;;;;15.48;12.23;;;;;;;5.25;79.15;102360.94;5007328;28;20041;-74
2022/04/27 02:23:01;;;;;;;14.38;11.77;;;;;;;5.23;78.43;102360.16;5006962;28;20029;-70
2022/04/27 02:25:27;;;;;;;16.85;13.07;;;;;;;5.16;78.75;102351.81;5006565;28;20374;-73
2022/04/27 02:27:53;;;;;;;16.50;12.48;;;;;;;5.12;79.34;102354.53;5006038;28;20030;-73
2022/04/27 02:30:19;;;;;;;18.15;13.18;;;;;;;5.13;79.17;102367.34;5005352;28;20084;-73
2022/04/27 02:32:47;;;;;;;17.52;12.35;;;;;;;5.02;79.51;102361.72;5007018;28;20478;-70
2022/04/27 02:35:14;;;;;;;17.45;12.63;;;;;;;5.10;79.10;102366.59;5006578;28;20053;-73
2022/04/27 02:37:39;;;;;;;15.57;12.38;;;;;;;5.07;79.58;102377.84;5007001;28;20387;-73
2022/04/27 02:40:06;;;;;;;17.05;13.35;;;;;;;5.05;79.30;102374.47;5006880;28;20038;-73
2022/04/27 02:42:31;;;;;;;15.70;12.65;;;;;;;4.99;79.13;102354.13;5005442;28;20032;-70
2022/04/27 02:44:57;;;;;;;17.27;12.95;;;;;;;5.01;79.24;102370.31;5006137;28;20050;-73
2022/04/27 02:47:22;;;;;;;16.25;12.50;;;;;;;5.01;79.63;102383.19;5004043;28;20045;-73
2022/04/27 02:52:32;;;;;;;16.50;12.43;;;;;;;4.96;79.45;102367.06;5006524;28;20044;-73
2022/04/27 02:54:57;;;;;;;16.52;12.80;;;;;;;4.94;79.41;102377.41;5005390;28;20034;-70
2022/04/27 02:57:23;;;;;;;17.20;12.95;;;;;;;4.95;79.64;102383.38;5006730;28;20446;-73
2022/04/27 02:59:48;;;;;;;16.30;13.45;;;;;;;4.93;79.67;102380.88;5005993;28;20473;-73
2022/04/27 03:02:14;;;;;;;15.32;12.77;;;;;;;4.89;79.49;102373.31;5006097;28;20045;-73
2022/04/27 03:04:40;;;;;;;17.75;13.35;;;;;;;4.90;80.11;102388.66;5006789;28;20109;-73
2022/04/27 03:07:06;;;;;;;16.63;12.48;;;;;;;4.86;80.45;102384.50;5006509;28;20476;-67
2022/04/27 03:09:31;;;;;;;15.25;13.10;;;;;;;4.87;80.33;102380.22;5006722;28;20038;-73
2022/04/27 03:11:57;;;;;;;16.75;13.25;;;;;;;4.85;80.69;102387.16;5006782;28;20036;-70
2022/04/27 03:14:22;;;;;;;15.35;13.05;;;;;;;4.83;81.05;102388.94;5005707;28;20497;-73
2022/04/27 03:16:52;;;;;;;16.20;12.85;;;;;;;4.76;81.08;102386.56;5006932;28;20038;-73
2022/04/27 03:19:18;;;;;;;15.68;12.57;;;;;;;4.72;81.56;102387.53;5008645;28;20018;-71
2022/04/27 03:21:44;;;;;;;16.42;12.93;;;;;;;4.73;81.42;102388.38;5010442;28;20149;-72
2022/04/27 03:24:10;;;;;;;14.98;13.13;;;;;;;4.71;81.13;102385.88;5025107;28;20553;-73
2022/04/27 03:26:35;;;;;;;16.55;13.00;;;;;;;4.75;81.50;102387.44;5010910;28;20033;-73
2022/04/27 03:29:00;;;;;;;17.60;13.70;;;;;;;4.73;81.43;102383.25;5009942;28;20382;-72
2022/04/27 03:31:26;;;;;;;16.35;12.77;;;;;;;4.69;81.55;102382.47;5010154;28;20029;-73
2022/04/27 03:33:52;;;;;;;17.08;12.65;;;;;;;4.65;81.29;102375.78;5010518;28;20104;-69
2022/04/27 03:36:17;;;;;;;16.88;13.18;;;;;;;4.70;81.09;102383.31;5024643;28;20492;-71
2022/04/27 03:38:43;;;;;;;16.73;12.82;;;;;;;4.69;81.06;102381.66;5008630;28;20077;-72
2022/04/27 03:41:09;;;;;;;15.80;13.57;;;;;;;4.68;81.25;102380.81;5009566;28;20137;-71
2022/04/27 03:43:36;;;;;;;15.70;13.23;;;;;;;4.69;81.36;102390.19;5010013;28;20022;-72
2022/04/27 03:46:02;;;;;;;17.90;13.02;;;;;;;4.64;82.09;102392.06;5009968;28;20065;-72
2022/04/27 03:48:27;;;;;;;19.63;14.70;;;;;;;4.61;82.06;102379.34;5024937;28;20481;-72
2022/04/27 03:50:53;;;;;;;16.92;14.07;;;;;;;4.59;82.50;102399.09;5010120;28;20520;-72
2022/04/27 03:53:18;;;;;;;17.50;13.90;;;;;;;4.53;82.32;102391.59;5009601;28;20029;-72
2022/04/27 03:55:44;;;;;;;19.00;14.07;;;;;;;4.53;82.81;102401.88;5004336;28;20028;-73
2022/04/27 03:58:10;;;;;;;17.67;13.90;;;;;;;4.51;82.94;102398.50;4999784;28;20371;-73
2022/04/27 04:00:35;;;;;;;17.33;14.48;;;;;;;4.48;83.16;102396.03;5007838;28;20033;-70
2022/04/27 04:03:02;;;;;;;17.60;15.13;;;;;;;4.42;83.71;102396.22;5008329;28;20091;-73
2022/04/27 04:05:28;;;;;;;17.00;13.85;;;;;;;4.46;83.61;102400.34;5009446;28;20466;-73
2022/04/27 04:07:54;;;;;;;17.65;14.35;;;;;;;4.39;83.60;102393.72;5009607;28;20087;-73
2022/04/27 04:10:20;;;;;;;18.08;14.48;;;;;;;4.43;84.08;102405.59;5023783;28;20450;-72
2022/04/27 04:12:45;;;;;;;17.70;14.27;;;;;;;4.37;83.54;102400.66;5009799;28;20057;-72
2022/04/27 04:15:11;;;;;;;20.92;14.50;;;;;;;4.43;83.33;102403.03;5008578;28;20505;-69
2022/04/27 04:17:37;;;;;;;17.08;14.10;;;;;;;4.44;83.47;102417.56;5024517;28;20045;-73
2022/04/27 04:20:03;;;;;;;19.05;15.73;;;;;;;4.43;83.74;102413.31;5007750;28;20037;-68
2022/04/27 04:22:29;;;;;;;20.67;14.90;;;;;;;4.44;84.00;102412.41;5009646;28;20037;-73
2022/04/27 04:30:22;;;;;;;20.55;14.27;;;;;;;4.45;83.83;102420.06;5008005;28;20091;-72
2022/04/27 04:32:47;;;;;;;18.50;14.13;;;;;;;4.47;83.67;102425.16;5009464;28;20425;-73
2022/04/27 04:35:14;;;;;;;18.52;14.98;;;;;;;4.42;83.03;102420.19;5007771;28;20034;-74
2022/04/27 04:37:39;;;;;;;17.15;14.18;;;;;;;4.35;82.77;102413.53;5009066;28;20488;-70
2022/04/27 04:40:05;;;;;;;16.52;13.15;;;;;;;4.45;82.89;102432.06;5007459;28;20033;-72
2022/04/27 04:42:33;;;;;;;17.27;13.80;;;;;;;4.46;83.15;102431.19;5007257;28;20366;-72
2022/04/27 04:44:58;;;;;;;18.75;13.80;;;;;;;4.47;83.04;102427.72;5008501;28;20132;-72
2022/04/27 04:47:24;;;;;;;18.17;13.98;;;;;;;4.53;82.69;102437.84;5008463;28;20109;-73
2022/04/27 04:49:49;;;;;;;17.10;13.38;;;;;;;4.48;82.77;102440.53;5008970;28;20434;-72
2022/04/27 04:52:14;;;;;;;16.90;14.00;;;;;;;4.45;83.06;102439.78;5008499;28;20466;-72
2022/04/27 04:54:40;;;;;;;16.67;13.15;;;;;;;4.43;82.68;102437.28;4990760;28;20044;-72
2022/04/27 04:57:05;;;;;;;15.80;13.10;;;;;;;4.51;82.65;102449.88;5008520;28;20052;-73
2022/04/27 04:59:30;;;;;;;16.38;13.85;;;;;;;4.51;82.53;102449.88;5008197;28;20026;-72
2022/04/27 05:01:56;;;;;;;18.35;13.98;;;;;;;4.52;83.04;102446.41;5007386;28;20030;-68
2022/04/27 05:04:22;;;;;;;18.48;13.55;;;;;;;4.53;82.91;102450.69;5006653;28;20034;-70
2022/04/27 05:06:47;;;;;;;17.85;13.45;;;;;;;4.61;82.81;102466.69;5008777;28;20780;-73
2022/04/27 05:09:12;;;;;;;16.95;14.32;;;;;;;4.64;83.11;102460.63;5006448;28;20028;-72
2022/04/27 05:11:38;;;;;;;17.15;14.13;;;;;;;4.63;83.30;102461.50;5007071;28;20060;-70
2022/04/27 05:14:03;;;;;;;16.25;13.65;;;;;;;4.63;83.29;102472.63;5008116;28;20478;-72
2022/04/27 05:16:31;;;;;;;17.70;13.45;;;;;;;4.64;83.35;102471.72;5007812;28;20129;-73
2022/04/27 05:18:56;;;;;;;16.58;12.98;;;;;;;4.54;83.55;102449.78;5008514;28;20022;-69
2022/04/27 05:21:22;;;;;;;18.55;14.07;;;;;;;4.71;83.85;102474.97;5007824;28;20105;-72
2022/04/27 05:23:47;;;;;;;17.58;13.73;;;;;;;4.73;83.88;102476.59;5007847;28;20044;-73
2022/04/27 05:26:12;;;;;;;17.35;12.93;;;;;;;4.69;83.69;102480.16;5007934;28;20447;-68
2022/04/27 05:34:05;;;;;;;18.05;13.02;;;;;;;4.79;83.37;102491.84;5007218;28;20045;-72
2022/04/27 05:36:32;;;;;;;17.85;14.10;;;;;;;4.80;83.61;102493.50;5007840;28;20030;-73
2022/04/27 05:38:57;;;;;;;18.55;13.23;;;;;;;4.83;83.56;102494.31;5007609;28;20029;-72
2022/04/27 05:41:22;;;;;;;18.05;13.50;;;;;;;4.84;83.06;102488.28;5007383;28;20371;-73
2022/04/27 05:43:48;;;;;;;17.60;14.60;;;;;;;4.93;83.02;102498.28;5005812;28;20124;-73
2022/04/27 05:46:13;;;;;;;17.17;14.43;;;;;;;4.97;82.50;102499.88;5006014;28;20103;-73
2022/04/27 05:48:39;;;;;;;17.80;13.52;;;;;;;5.00;83.34;102494.66;5008169;28;20029;-73
2022/04/27 05:51:05;;;;;;;19.95;14.45;;;;;;;5.06;83.13;102504.75;5008446;28;20026;-72
2022/04/27 05:53:31;;;;;;;17.48;14.45;;;;;;;5.13;83.22;102498.50;5005550;28;20034;-73
2022/04/27 05:55:56;;;;;;;17.08;14.13;;;;;;;5.21;82.60;102511.09;5007855;28;20549;-69
2022/04/27 05:58:21;;;;;;;16.02;13.82;;;;;;;5.27;83.05;102514.31;5007493;28;20022;-73
2022/04/27 06:00:49;;;;;;;18.30;14.02;;;;;;;5.33;82.17;102511.56;5007418;28;20037;-72
2022/04/27 06:03:14;;;;;;;19.27;14.10;;;;;;;5.36;81.88;102502.06;5006823;28;20042;-73
2022/04/27 06:05:40;;;;;;;19.50;14.32;;;;;;;5.42;82.24;102507.00;5004237;28;20034;-71
2022/04/27 06:08:06;;;;;;;16.40;13.55;;;;;;;5.49;82.50;102509.31;5004511;28;20032;-74
2022/04/27 06:10:32;;;;;;;19.00;14.50;;;;;;;5.58;82.79;102514.16;5005514;28;20378;-72
2022/04/27 06:12:57;;;;;;;17.55;14.07;;;;;;;5.64;82.29;102518.28;5007072;28;20026;-73
2022/04/27 06:15:22;;;;;;;18.75;14.52;;;;;;;5.67;81.72;102528.44;5006914;28;20036;-73
2022/04/27 06:17:48;;;;;;;19.92;14.73;;;;;;;5.75;82.29;102526.47;5005173;28;20064;-71
2022/04/27 06:20:13;;;;;;;16.88;14.80;;;;;;;5.79;82.20;102527.19;5007225;28;20025;-73
2022/04/27 06:22:38;;;;;;;20.25;14.82;;;;;;;5.85;81.66;102527.00;5005775;28;20382;-71
2022/04/27 06:25:05;;;;;;;18.00;14.50;;;;;;;5.89;82.45;102512.28;5006370;28;20029;-69
2022/04/27 06:27:30;;;;;;;17.00;13.90;;;;;;;5.98;81.77;102528.28;5006191;28;20138;-73
2022/04/27 06:29:55;;;;;;;18.25;13.65;;;;;;;6.09;80.91;102526.16;5005053;28;20429;-74
2022/04/27 06:32:20;;;;;;;16.73;13.50;;;;;;;6.13;80.27;102526.88;5007282;28;20033;-74
2022/04/27 06:34:46;;;;;;;17.10;13.98;;;;;;;6.14;80.98;102520.84;5006653;28;20034;-72
2022/04/27 06:37:11;;;;;;;16.88;12.52;;;;;;;6.20;79.36;102533.53;4998162;28;20484;-74
2022/04/27 06:39:38;;;;;;;14.75;12.32;;;;;;;6.20;78.98;102525.78;5007294;28;20025;-72
2022/04/27 06:42:05;;;;;;;18.23;12.73;;;;;;;6.34;78.14;102535.59;5007310;28;20022;-74
2022/04/27 06:44:33;;;;;;;16.65;12.43;;;;;;;6.35;78.00;102538.09;5006692;28;20050;-70
2022/04/27 06:46:58;;;;;;;16.38;13.52;;;;;;;6.44;78.63;102543.84;5004553;28;20060;-71
2022/04/27 06:49:24;;;;;;;20.13;15.13;;;;;;;6.53;78.35;102546.06;5005820;28;20026;-74
2022/04/27 06:51:49;;;;;;;18.88;14.48;;;;;;;6.61;78.72;102549.22;5005276;28;20517;-74
2022/04/27 06:54:14;;;;;;;16.85;14.27;;;;;;;6.71;78.22;102545.38;5006253;28;20557;-74
2022/04/27 06:56:40;;;;;;;17.48;13.75;;;;;;;6.78;77.94;102557.16;5005567;28;20034;-75
2022/04/27 06:59:05;;;;;;;17.10;13.98;;;;;;;6.87;77.63;102561.94;5004899;28;20394;-73
2022/04/27 07:01:31;;;;;;;16.58;13.23;;;;;;;6.88;77.27;102555.91;5004112;28;20036;-69
2022/04/27 07:04:01;;;;;;;16.08;12.77;;;;;;;7.00;76.09;102556.34;5004316;28;20109;-74
2022/04/27 07:06:26;;;;;;;16.55;13.60;;;;;;;7.04;76.71;102563.03;5004481;28;20030;-74
2022/04/27 07:08:52;;;;;;;16.88;12.77;;;;;;;7.12;76.24;102569.59;5004821;28;20521;-74
2022/04/27 07:11:18;;;;;;;17.83;14.18;;;;;;;7.17;77.02;102564.25;5004674;28;20478;-73
2022/04/27 07:13:43;;;;;;;18.00;12.55;;;;;;;7.28;75.34;102561.22;5005062;28;20038;-73
2022/04/27 07:16:08;;;;;;;15.93;12.35;;;;;;;7.39;74.79;102570.22;5004279;28;20069;-75
2022/04/27 07:18:34;;;;;;;15.63;11.98;;;;;;;7.44;74.73;102567.44;5005723;28;20041;-73
2022/04/27 07:21:00;;;;;;;16.15;12.77;;;;;;;7.50;74.78;102571.53;5005947;28;20056;-74
2022/04/27 07:23:26;;;;;;;16.77;12.73;;;;;;;7.60;73.62;102572.84;5006138;28;20470;-74
2022/04/27 07:25:51;;;;;;;14.75;12.75;;;;;;;7.66;74.13;102578.59;5005281;28;20049;-76
2022/04/27 07:28:17;;;;;;;16.85;11.90;;;;;;;7.66;74.08;102567.41;5005002;28;20032;-75
2022/04/27 07:30:42;;;;;;;16.35;12.75;;;;;;;7.82;74.21;102578.78;5005216;28;20040;-75
2022/04/27 07:33:07;;;;;;;14.73;11.70;;;;;;;7.74;72.41;102578.25;5005465;28;20033;-74
2022/04/27 07:35:33;;;;;;;16.08;11.35;;;;;;;7.93;72.70;102583.50;5005940;28;20073;-75
2022/04/27 07:37:58;;;;;;;14.85;11.55;;;;;;;7.94;72.70;102578.28;5006130;28;20420;-73
2022/04/27 07:40:23;;;;;;;13.70;11.23;;;;;;;8.04;72.23;102588.22;5004510;28;20033;-75
2022/04/27 07:42:49;;;;;;;15.88;11.40;;;;;;;8.07;71.44;102588.91;5006422;28;20117;-75
2022/04/27 07:45:14;;;;;;;14.82;9.80;;;;;;;8.17;70.86;102584.19;5005570;28;20628;-75
2022/04/27 07:47:42;;;;;;;14.43;9.68;;;;;;;8.39;70.80;102600.50;5005938;28;20100;-75
2022/04/27 07:50:09;;;;;;;13.30;7.43;;;;;;;8.47;68.44;102600.97;5005735;28;20033;-74
2022/04/27 07:52:34;;;;;;;10.00;8.20;;;;;;;8.52;67.07;102596.44;5006252;28;20503;-75
2022/04/27 07:54:59;;;;;;;11.05;8.73;;;;;;;8.64;67.48;102594.22;5005011;28;20115;-76
2022/04/27 07:57:29;;;;;;;13.88;9.23;;;;;;;8.78;68.19;102599.63;5005913;28;20053;-73
2022/04/27 07:59:55;;;;;;;13.50;9.50;;;;;;;8.87;67.81;102601.78;5006533;28;20520;-75
2022/04/27 08:02:20;;;;;;;14.05;11.40;;;;;;;8.91;68.88;102597.31;5004663;28;20021;-75
2022/04/27 08:04:45;;;;;;;13.07;10.07;;;;;;;8.93;67.40;102596.31;5009757;28;20469;-75
2022/04/27 08:07:10;;;;;;;9.73;6.72;;;;;;;8.99;64.97;102601.19;5007493;28;20033;-76
2022/04/27 08:09:36;;;;;;;8.25;5.55;;;;;;;9.01;62.35;102603.75;5008095;28;20363;-74
2022/04/27 08:12:01;;;;;;;8.88;6.03;;;;;;;9.19;62.48;102602.03;5010025;28;20113;-74
2022/04/27 08:14:26;;;;;;;9.65;5.25;;;;;;;9.14;61.32;102609.16;5009204;28;20060;-75
2022/04/27 08:16:52;;;;;;;9.13;6.00;;;;;;;9.10;60.38;102612.81;5009330;28;20112;-71
2022/04/27 08:19:17;;;;;;;10.00;5.85;;;;;;;9.13;61.44;102613.50;4991395;28;20033;-75
2022/04/27 08:21:43;;;;;;;8.73;5.53;;;;;;;9.13;60.70;102612.69;5009487;28;20029;-74
2022/04/27 08:24:11;;;;;;;8.55;5.07;;;;;;;9.29;59.78;102611.03;5008721;28;20076;-73
2022/04/27 08:26:36;;;;;;;8.40;5.03;;;;;;;9.46;59.53;102618.84;5009790;28;20030;-72
2022/04/27 08:29:02;;;;;;;8.50;4.90;;;;;;;9.51;59.78;102614.25;5008972;28;20037;-74
2022/04/27 08:31:27;;;;;;;8.68;5.03;;;;;;;9.54;60.40;102613.28;5008950;28;20110;-72
2022/04/27 08:33:53;;;;;;;9.68;6.00;;;;;;;9.67;59.84;102613.53;5009471;28;20112;-75
2022/04/27 08:36:18;;;;;;;8.77;5.38;;;;;;;9.82;57.75;102623.97;5008599;28;20030;-75
2022/04/27 08:38:43;;;;;;;9.32;4.90;;;;;;;9.85;58.37;102617.78;5008773;28;20374;-72
2022/04/27 08:41:09;;;;;;;8.38;4.93;;;;;;;10.02;58.54;102630.75;5009022;28;20030;-75
2022/04/27 08:43:34;;;;;;;8.20;5.45;;;;;;;10.14;58.00;102612.88;5009039;28;20095;-75
2022/04/27 08:46:03;;;;;;;8.90;5.45;;;;;;;10.11;56.10;102625.09;5008411;28;20054;-73
2022/04/27 08:48:29;;;;;;;;;;;;;;;10.39;60.11;102623.72;5009288;28;20434;-75
2022/04/27 08:50:58;;;;;;;9.32;5.30;;;;;;;10.24;57.04;102627.09;5008216;28;19987;-72
2022/04/27 08:53:23;;;;;;;11.93;6.32;;;;;;;10.25;57.27;102615.81;5007860;28;20033;-74
2022/04/27 08:55:51;;;;;;;10.70;6.78;;;;;;;10.35;58.24;102622.19;5008080;28;20061;-72
2022/04/27 08:58:17;;;;;;;9.88;6.20;;;;;;;10.32;55.58;102627.53;5008395;28;20022;-75
2022/04/27 09:00:44;;;;;;;8.93;6.05;;;;;;;10.29;56.05;102625.09;5008182;28;20386;-74
2022/04/27 09:03:31;;;;;;;9.60;6.25;;;;;;;10.44;57.74;102637.28;5007908;28;20080;-75
2022/04/27 09:06:03;;;;;;;10.32;6.13;;;;;;;10.58;56.37;102634.81;5007987;28;20034;-72
2022/04/27 09:08:45;;;;;;;9.73;5.88;;;;;;;10.75;58.06;102627.88;5006585;28;20030;-75
2022/04/27 09:11:21;;;;;;;10.13;5.80;;;;;;;10.79;57.34;102616.44;5008139;28;20030;-75
2022/04/27 09:13:51;;;;;;;8.55;5.63;;;;;;;10.82;55.28;102629.22;5008409;28;20057;-74
2022/04/27 09:16:18;;;;;;;9.40;5.85;;;;;;;10.81;55.04;102624.97;5006377;28;20141;-72
2022/04/27 09:22:04;;;;;;;8.77;6.47;;;;;;;10.89;54.93;102635.75;5008168;28;20044;-75
2022/04/27 09:24:47;;;;;;;8.68;6.22;;;;;;;10.95;53.88;102638.00;5007365;28;20034;-75
2022/04/27 09:27:17;;;;;;;9.95;5.80;;;;;;;10.82;55.13;102631.81;5007746;28;20124;-75
2022/04/27 09:29:42;;;;;;;9.55;6.20;;;;;;;11.03;56.56;102635.84;5007406;28;20042;-74
2022/04/27 09:32:15;;;;;;;9.50;6.25;;;;;;;10.86;54.31;102643.72;5008050;28;20036;-74
2022/04/27 09:34:45;;;;;;;8.75;6.20;;;;;;;10.87;55.25;102635.00;5008226;28;20030;-72
2022/04/27 09:37:18;;;;;;;10.68;6.68;;;;;;;11.26;55.80;102638.94;5007744;28;20040;-72
2022/04/27 09:39:45;;;;;;;11.18;6.20;;;;;;;11.26;53.06;102633.75;5007972;28;20033;-75
2022/04/27 09:42:10;;;;;;;9.45;5.93;;;;;;;11.52;55.56;102620.13;5005322;28;20021;-74
2022/04/27 09:44:38;;;;;;;10.63;6.45;;;;;;;11.73;53.59;102640.63;5006562;28;20069;-75
2022/04/27 09:47:06;;;;;;;8.90;5.90;;;;;;;11.85;52.72;102639.94;5007064;28;20029;-72
2022/04/27 09:49:32;;;;;;;8.20;5.67;;;;;;;11.98;53.96;102630.50;5006034;28;20633;-75
2022/04/27 09:52:00;;;;;;;9.40;5.63;;;;;;;12.15;53.54;102635.53;5006757;28;20395;-74
2022/04/27 09:54:28;;;;;;;7.65;5.85;;;;;;;12.14;51.78;102626.06;5005166;28;20040;-75
2022/04/27 09:56:57;;;;;;;9.45;5.82;;;;;;;11.98;49.67;102630.50;5006623;28;20044;-76
2022/04/27 09:59:27;;;;;;;8.48;5.57;;;;;;;11.69;48.06;102638.19;5006055;28;20029;-75
2022/04/27 10:01:55;;;;;;;10.35;5.75;;;;;;;11.76;50.95;102627.47;5006926;28;20032;-75
2022/04/27 10:04:24;;;;;;;8.45;6.07;;;;;;;11.72;52.44;102628.56;5006810;28;20047;-74
2022/04/27 10:06:50;;;;;;;10.07;6.55;;;;;;;11.88;53.28;102637.19;5005962;28;20112;-75
2022/04/27 10:09:15;;;;;;;9.73;6.40;;;;;;;11.72;50.69;102638.94;5006377;28;20455;-75
2022/04/27 10:11:42;;;;;;;9.90;6.28;;;;;;;11.65;50.39;102639.31;5006211;28;20045;-75
2022/04/27 10:14:07;;;;;;;8.60;6.13;;;;;;;11.68;52.99;102636.50;5006597;28;20025;-70
2022/04/27 10:16:34;;;;;;;9.23;6.25;;;;;;;11.57;51.06;102628.50;5006517;28;20034;-75
2022/04/27 10:19:00;;;;;;;9.25;5.95;;;;;;;11.60;51.50;102637.91;5006705;28;20050;-70
2022/04/27 10:21:57;;;;;;;8.57;6.40;;;;;;;11.66;53.31;102646.19;5006788;28;20115;-71
2022/04/27 10:24:35;;;;;;;9.73;6.72;;;;;;;11.58;54.50;102637.97;5006272;28;20049;-71
2022/04/27 10:27:15;;;;;;;8.23;6.60;;;;;;;11.95;53.41;102630.69;5005410;28;20520;-70
2022/04/27 10:29:43;;;;;;;10.80;6.45;;;;;;;12.07;50.90;102619.56;5006008;28;20026;-71
2022/04/27 10:32:08;;;;;;;9.10;6.18;;;;;;;12.08;49.79;102631.63;5005051;28;20167;-71
2022/04/27 10:34:34;;;;;;;9.57;6.82;;;;;;;12.16;50.37;102624.22;4999135;28;20026;-70
2022/04/27 10:37:00;;;;;;;9.68;6.70;;;;;;;12.16;49.65;102634.63;5005926;28;20010;-69
2022/04/27 10:39:35;;;;;;;11.45;6.78;;;;;;;12.44;50.26;102627.75;5020260;28;20030;-70
2022/04/27 10:42:03;;;;;;;9.70;6.65;;;;;;;12.43;49.32;102631.28;5004981;28;20521;-69
2022/04/27 10:44:50;;;;;;;11.55;7.18;;;;;;;12.63;50.18;102638.72;5005327;28;20391;-70
2022/04/27 10:47:18;;;;;;;9.55;6.80;;;;;;;12.66;50.53;102633.31;5005959;28;20033;-70
2022/04/27 10:49:47;;;;;;;10.18;7.05;;;;;;;12.37;47.73;102621.25;5009244;28;20057;-70
2022/04/27 10:52:13;;;;;;;9.00;7.00;;;;;;;12.56;51.29;102632.22;5005298;28;20017;-70
2022/04/27 10:54:40;;;;;;;10.80;7.47;;;;;;;12.58;48.83;102625.16;5005536;28;20057;-70
2022/04/27 10:57:15;;;;;;;11.00;7.90;;;;;;;12.71;48.88;102626.06;5005119;28;20033;-70
2022/04/27 10:59:54;;;;;;;9.75;6.70;;;;;;;12.82;50.84;102632.38;5005139;28;20124;-71
2022/04/27 11:02:37;;;;;;;10.77;7.43;;;;;;;12.98;51.19;102627.88;5004829;28;21110;-71
2022/04/27 11:05:14;;;;;;;9.82;7.30;;;;;;;12.77;45.40;102636.09;5006167;28;20037;-71
2022/04/27 11:08:01;;;;;;;10.90;6.90;;;;;;;13.07;46.99;102637.72;5006057;28;20470;-71
2022/04/27 11:10:27;;;;;;;11.45;7.15;;;;;;;13.21;48.22;102619.47;4993575;28;20030;-71
2022/04/27 11:12:55;;;;;;;9.93;7.15;;;;;;;13.33;47.33;102630.88;5005049;28;20137;-71
2022/04/27 11:15:23;;;;;;;11.23;6.50;;;;;;;13.50;46.55;102630.63;5005581;28;20181;-70
2022/04/27 11:18:01;;;;;;;8.88;6.72;;;;;;;13.44;44.46;102630.19;5006191;28;20342;-70
2022/04/27 11:20:34;;;;;;;;;;;;;;;13.67;45.84;102632.13;5005961;28;20026;-70
2022/04/27 11:23:03;;;;;;;9.25;6.70;;;;;;;13.28;47.72;102623.34;5005899;28;19971;-71
2022/04/27 11:25:28;;;;;;;;;;;;;;;13.58;49.07;102622.28;5004708;28;20159;-71
2022/04/27 11:27:54;;;;;;;8.85;7.25;;;;;;;13.11;44.14;102618.34;5006359;28;20007;-70
2022/04/27 11:30:20;;;;;;;8.95;7.07;;;;;;;13.21;46.54;102622.09;5005607;28;20112;-71
2022/04/27 11:32:47;;;;;;;8.65;6.43;;;;;;;13.21;46.08;102619.47;5005922;28;20037;-70
2022/04/27 11:35:14;;;;;;;8.63;6.13;;;;;;;13.18;45.37;102617.03;5005605;28;20061;-71
2022/04/27 11:37:39;;;;;;;8.38;5.57;;;;;;;13.31;47.97;102618.91;5004886;28;20378;-71